createdAt,value
2018-07-10T00:03:45.729Z,14.90
2018-07-10T00:08:14.695Z,14.90
2018-07-10T00:12:19.166Z,14.90
2018-07-10T00:16:24.081Z,14.90
2018-07-10T00:20:28.518Z,14.90
2018-07-10T00:24:32.882Z,14.90
2018-07-10T00:28:37.350Z,14.80
2018-07-10T00:32:41.818Z,14.70
2018-07-10T00:36:46.281Z,14.70
2018-07-10T00:40:50.755Z,14.70
2018-07-10T00:44:55.227Z,14.80
2018-07-10T00:49:00.030Z,14.70
2018-07-10T00:53:04.472Z,14.80
2018-07-10T00:57:08.946Z,14.80
2018-07-10T01:01:13.790Z,14.80
2018-07-10T01:05:18.242Z,14.70
2018-07-10T01:09:22.937Z,14.70
2018-07-10T01:13:27.461Z,14.70
2018-07-10T01:17:31.928Z,14.60
2018-07-10T01:21:36.497Z,14.60
2018-07-10T01:25:40.887Z,14.70
2018-07-10T01:29:49.421Z,14.80
2018-07-10T01:33:53.941Z,14.80
2018-07-10T01:37:58.550Z,14.70
2018-07-10T01:42:02.982Z,14.60
2018-07-10T01:46:07.515Z,14.50
2018-07-10T01:50:11.891Z,14.60
2018-07-10T01:54:16.595Z,14.50
2018-07-10T01:58:21.837Z,14.50
2018-07-10T02:02:26.284Z,14.40
2018-07-10T02:06:31.116Z,14.40
2018-07-10T02:10:35.585Z,14.30
2018-07-10T02:14:39.974Z,14.10
2018-07-10T02:18:44.785Z,14.10
2018-07-10T02:22:50.104Z,14.00
2018-07-10T02:26:55.099Z,13.90
2018-07-10T02:31:00.136Z,13.80
2018-07-10T02:35:05.400Z,13.70
2018-07-10T02:39:10.003Z,13.60
2018-07-10T02:43:14.966Z,13.60
2018-07-10T02:47:19.568Z,13.50
2018-07-10T02:51:24.276Z,13.50
2018-07-10T02:55:29.371Z,13.40
2018-07-10T02:59:37.946Z,13.30
2018-07-10T03:03:44.126Z,13.30
2018-07-10T03:07:48.794Z,13.30
2018-07-10T03:11:53.472Z,13.30
2018-07-10T03:15:58.020Z,13.20
2018-07-10T03:20:04.016Z,13.20
2018-07-10T03:24:08.950Z,13.10
2018-07-10T03:28:13.718Z,13.10
2018-07-10T03:32:18.789Z,13.10
2018-07-10T03:36:23.477Z,13.20
2018-07-10T03:40:29.465Z,13.20
2018-07-10T03:44:34.007Z,13.40
2018-07-10T03:48:39.209Z,13.50
2018-07-10T03:52:45.266Z,13.50
2018-07-10T03:56:49.768Z,13.60
2018-07-10T04:00:54.274Z,13.70
2018-07-10T04:04:58.847Z,13.80
2018-07-10T04:09:05.056Z,14.00
2018-07-10T04:13:12.733Z,14.20
2018-07-10T04:17:29.634Z,14.40
2018-07-10T04:21:34.642Z,14.50
2018-07-10T04:25:39.249Z,14.60
2018-07-10T04:29:51.343Z,14.70
2018-07-10T04:33:55.986Z,14.70
2018-07-10T04:38:00.652Z,14.80
2018-07-10T04:42:12.685Z,14.90
2018-07-10T04:46:17.161Z,14.90
2018-07-10T04:50:27.872Z,15.00
2018-07-10T04:54:46.612Z,15.10
2018-07-10T04:58:55.666Z,15.10
2018-07-10T05:03:00.960Z,15.30
2018-07-10T05:07:08.400Z,15.60
2018-07-10T05:11:12.895Z,15.80
2018-07-10T05:15:17.466Z,15.90
2018-07-10T05:19:22.066Z,16.30
2018-07-10T05:23:31.290Z,16.40
2018-07-10T05:27:36.253Z,16.50
2018-07-10T05:31:41.006Z,16.70
2018-07-10T05:35:46.157Z,16.90
2018-07-10T05:39:50.787Z,17.00
2018-07-10T05:43:55.434Z,17.20
2018-07-10T05:48:02.330Z,17.50
2018-07-10T05:52:06.852Z,17.40
2018-07-10T05:56:12.306Z,17.30
2018-07-10T06:00:16.851Z,17.30
2018-07-10T06:04:21.288Z,17.40
2018-07-10T06:08:25.905Z,17.50
2018-07-10T06:12:30.491Z,17.60
2018-07-10T06:16:36.104Z,17.80
2018-07-10T06:20:42.586Z,18.30
2018-07-10T06:24:47.152Z,18.80
2018-07-10T06:28:58.330Z,19.20
2018-07-10T06:33:05.980Z,19.50
2018-07-10T06:37:11.616Z,19.80
2018-07-10T06:41:16.339Z,20.20
2018-07-10T06:45:20.906Z,20.60
2018-07-10T06:49:43.899Z,20.80
2018-07-10T06:53:50.293Z,21.20
2018-07-10T06:57:57.994Z,21.70
2018-07-10T07:02:02.510Z,21.80
2018-07-10T07:06:06.959Z,21.80
2018-07-10T07:10:13.695Z,21.70
2018-07-10T07:14:18.300Z,21.90
2018-07-10T07:18:23.027Z,22.00
2018-07-10T07:22:27.785Z,22.10
2018-07-10T07:26:32.306Z,22.60
2018-07-10T07:30:36.863Z,22.30
2018-07-10T07:34:41.446Z,22.30
2018-07-10T07:38:46.035Z,22.50
2018-07-10T07:42:50.595Z,22.70
2018-07-10T07:46:55.192Z,22.70
2018-07-10T07:51:00.418Z,22.50
2018-07-10T07:55:05.260Z,22.50
2018-07-10T07:59:09.901Z,22.40
2018-07-10T08:03:14.572Z,22.30
2018-07-10T08:07:20.746Z,22.40
2018-07-10T08:11:25.278Z,22.60
2018-07-10T08:15:29.846Z,22.90
2018-07-10T08:19:34.383Z,23.30
2018-07-10T08:23:39.026Z,23.60
2018-07-10T08:27:43.942Z,24.00
2018-07-10T08:31:48.721Z,24.30
2018-07-10T08:35:53.306Z,24.60
2018-07-10T08:39:57.826Z,24.80
2018-07-10T08:44:02.369Z,25.20
2018-07-10T08:48:07.113Z,25.40
2018-07-10T08:52:12.985Z,25.70
2018-07-10T08:56:17.600Z,26.20
2018-07-10T09:00:22.184Z,26.90
2018-07-10T09:04:26.928Z,28.10
2018-07-10T09:08:31.402Z,28.80
2018-07-10T09:12:36.009Z,29.20
2018-07-10T09:16:40.460Z,29.50
2018-07-10T09:20:49.204Z,29.20
2018-07-10T09:24:57.351Z,29.20
2018-07-10T09:29:01.946Z,28.50
2018-07-10T09:33:06.851Z,27.80
2018-07-10T09:38:13.964Z,28.00
2018-07-10T09:42:18.478Z,27.70
2018-07-10T09:46:23.055Z,27.30
2018-07-10T09:50:27.709Z,28.10
2018-07-10T09:54:32.550Z,28.80
2018-07-10T09:58:37.748Z,30.00
2018-07-10T10:02:42.345Z,30.60
2018-07-10T10:06:46.849Z,30.40
2018-07-10T10:10:51.489Z,29.90
2018-07-10T10:14:56.197Z,29.90
2018-07-10T10:19:00.753Z,30.20
2018-07-10T10:23:05.690Z,30.20
2018-07-10T10:27:11.216Z,31.50
2018-07-10T10:31:15.807Z,31.50
2018-07-10T10:35:20.426Z,31.20
2018-07-10T10:39:24.983Z,32.00
2018-07-10T10:43:29.564Z,31.80
2018-07-10T10:47:34.828Z,31.10
2018-07-10T10:51:39.411Z,31.20
2018-07-10T10:55:44.007Z,33.20
2018-07-10T10:59:51.464Z,34.30
2018-07-10T11:03:56.106Z,33.30
2018-07-10T11:08:01.922Z,34.30
2018-07-10T11:12:06.605Z,32.10
2018-07-10T11:16:11.172Z,31.10
2018-07-10T11:20:24.508Z,31.50
2018-07-10T11:26:39.953Z,31.90
2018-07-10T11:30:44.464Z,32.50
2018-07-10T11:34:48.889Z,33.90
2018-07-10T11:38:53.866Z,34.00
2018-07-10T11:42:58.501Z,32.90
2018-07-10T11:47:02.920Z,33.20
2018-07-10T11:51:07.379Z,32.90
2018-07-10T11:55:11.934Z,32.80
2018-07-10T11:59:16.480Z,32.20
2018-07-10T12:03:21.376Z,32.40
2018-07-10T12:07:25.823Z,32.30
2018-07-10T12:11:32.234Z,31.50
2018-07-10T12:15:37.369Z,30.60
2018-07-10T12:19:42.614Z,31.00
2018-07-10T12:23:47.219Z,32.20
2018-07-10T12:27:52.012Z,32.70
2018-07-10T12:31:56.567Z,34.30
2018-07-10T12:36:01.150Z,35.50
2018-07-10T12:40:05.654Z,35.40
2018-07-10T12:44:10.227Z,36.10
2018-07-10T12:48:14.664Z,35.00
2018-07-10T12:52:19.291Z,35.30
2018-07-10T12:56:23.810Z,35.60
2018-07-10T13:00:29.370Z,36.50
2018-07-10T13:04:34.628Z,36.20
2018-07-10T13:08:39.066Z,36.00
2018-07-10T13:12:43.682Z,35.70
2018-07-10T13:16:48.240Z,34.10
2018-07-10T13:20:53.028Z,32.30
2018-07-10T13:24:57.580Z,31.10
2018-07-10T13:29:02.149Z,30.70
2018-07-10T13:33:06.691Z,29.50
2018-07-10T13:37:11.332Z,29.30
2018-07-10T13:41:15.922Z,28.90
2018-07-10T13:45:21.668Z,28.90
2018-07-10T13:49:26.216Z,28.70
2018-07-10T13:53:30.697Z,28.50
2018-07-10T13:57:35.509Z,28.80
2018-07-10T14:01:40.913Z,29.00
2018-07-10T14:05:45.471Z,28.60
2018-07-10T14:09:50.061Z,28.40
2018-07-10T14:13:54.636Z,28.80
2018-07-10T14:17:59.668Z,29.70
2018-07-10T14:22:04.623Z,30.80
2018-07-10T14:26:09.143Z,31.20
2018-07-10T14:30:13.732Z,31.90
2018-07-10T14:34:18.262Z,32.10
2018-07-10T14:38:27.090Z,31.40
2018-07-10T14:42:31.956Z,30.30
2018-07-10T14:46:36.589Z,29.40
2018-07-10T14:50:41.254Z,28.70
2018-07-10T14:54:45.938Z,28.60
2018-07-10T14:58:50.593Z,28.30
2018-07-10T15:02:55.443Z,28.20
2018-07-10T15:06:59.834Z,28.00
2018-07-10T15:11:04.553Z,28.10
2018-07-10T15:15:09.214Z,27.70
2018-07-10T15:19:15.477Z,27.70
2018-07-10T15:23:19.998Z,27.70
2018-07-10T15:27:24.628Z,27.80
2018-07-10T15:31:29.595Z,27.50
2018-07-10T15:35:34.040Z,27.30
2018-07-10T15:39:38.720Z,27.20
2018-07-10T15:43:43.185Z,26.90
2018-07-10T15:47:48.038Z,26.30
2018-07-10T15:51:53.122Z,25.90
2018-07-10T15:55:57.601Z,25.40
2018-07-10T16:00:02.308Z,24.90
2018-07-10T16:04:07.107Z,24.80
2018-07-10T16:08:15.938Z,24.60
2018-07-10T16:12:22.698Z,24.30
2018-07-10T16:16:27.424Z,24.30
2018-07-10T16:20:34.854Z,24.00
2018-07-10T16:24:44.778Z,23.80
2018-07-10T16:28:49.511Z,23.60
2018-07-10T16:32:54.150Z,23.50
2018-07-10T16:36:59.099Z,23.20
2018-07-10T16:41:08.563Z,23.20
2018-07-10T16:45:16.784Z,23.10
2018-07-10T16:49:29.221Z,21.30
2018-07-10T16:53:35.457Z,19.80
2018-07-10T16:57:40.214Z,19.00
2018-07-10T17:01:44.845Z,18.50
2018-07-10T17:05:49.394Z,18.20
2018-07-10T17:09:55.074Z,18.10
2018-07-10T17:13:59.555Z,18.20
2018-07-10T17:18:04.558Z,18.30
2018-07-10T17:22:09.056Z,18.30
2018-07-10T17:26:13.527Z,18.30
2018-07-10T17:30:18.480Z,18.30
2018-07-10T17:34:23.393Z,18.30
2018-07-10T17:38:29.743Z,18.50
2018-07-10T17:42:35.478Z,18.30
2018-07-10T17:46:40.432Z,18.30
2018-07-10T17:50:45.155Z,18.30
2018-07-10T17:54:50.145Z,18.50
2018-07-10T17:58:54.953Z,18.40
2018-07-10T18:02:59.986Z,18.20
2018-07-10T18:07:04.983Z,18.20
2018-07-10T18:11:09.535Z,18.20
2018-07-10T18:15:14.487Z,18.10
2018-07-10T18:19:19.131Z,18.00
2018-07-10T18:23:24.881Z,18.00
2018-07-10T18:27:29.306Z,17.80
2018-07-10T18:31:34.215Z,17.90
2018-07-10T18:35:38.760Z,17.90
2018-07-10T18:39:43.322Z,18.10
2018-07-10T18:43:48.711Z,18.10
2018-07-10T18:47:53.333Z,18.10
2018-07-10T18:51:57.917Z,17.90
2018-07-10T18:56:03.707Z,17.90
2018-07-10T19:00:08.379Z,17.80
2018-07-10T19:04:13.063Z,17.70
2018-07-10T19:08:18.899Z,17.50
2018-07-10T19:12:23.596Z,17.50
2018-07-10T19:16:28.248Z,17.40
2018-07-10T19:20:34.453Z,17.20
2018-07-10T19:24:39.615Z,17.10
2018-07-10T19:28:47.150Z,16.90
2018-07-10T19:32:52.137Z,17.00
2018-07-10T19:36:56.805Z,16.90
2018-07-10T19:41:01.416Z,16.60
2018-07-10T19:45:06.415Z,16.60
2018-07-10T19:49:11.107Z,16.70
2018-07-10T19:53:15.773Z,16.50
2018-07-10T19:57:48.660Z,16.50
2018-07-10T20:02:02.845Z,16.40
2018-07-10T20:06:12.091Z,16.30
2018-07-10T20:10:29.058Z,16.20
2018-07-10T20:14:41.554Z,16.20
2018-07-10T20:19:23.129Z,16.30
2018-07-10T20:24:03.032Z,16.20
2018-07-10T20:28:30.900Z,16.10
2018-07-10T20:33:45.893Z,16.10
2018-07-10T20:37:51.004Z,16.10
2018-07-10T20:41:55.543Z,16.10
2018-07-10T20:46:00.308Z,16.00
2018-07-10T20:50:06.468Z,16.00
2018-07-10T20:54:19.387Z,16.00
2018-07-10T20:58:25.884Z,16.20
2018-07-10T21:04:49.368Z,16.30
2018-07-10T21:09:05.835Z,16.30
2018-07-10T21:13:14.400Z,15.90
2018-07-10T21:17:19.398Z,15.90
2018-07-10T21:24:48.022Z,15.90
2018-07-10T21:28:57.410Z,15.70
2018-07-10T21:33:12.849Z,15.80
2018-07-10T21:47:35.245Z,15.70
2018-07-10T21:51:40.286Z,15.80
2018-07-10T21:55:44.848Z,15.50
2018-07-10T22:00:07.040Z,15.40
2018-07-10T22:04:15.494Z,15.50
2018-07-10T22:08:20.298Z,15.60
2018-07-10T22:12:24.963Z,15.50
2018-07-10T22:16:29.635Z,15.30
2018-07-10T22:20:34.197Z,15.20
2018-07-10T22:24:39.280Z,15.30
2018-07-10T22:28:43.960Z,15.10
2018-07-10T22:32:53.439Z,15.10
2018-07-10T22:36:58.290Z,15.00
2018-07-10T22:41:02.955Z,15.00
2018-07-10T22:45:07.455Z,15.00
2018-07-10T22:49:14.255Z,15.00
2018-07-10T22:53:18.918Z,15.00
2018-07-10T22:57:23.443Z,15.10
2018-07-10T23:01:28.030Z,15.00
2018-07-10T23:05:32.837Z,15.00
2018-07-10T23:09:37.407Z,15.10
2018-07-10T23:13:46.888Z,14.90
2018-07-10T23:17:51.403Z,14.90
2018-07-10T23:21:55.902Z,14.90
2018-07-10T23:26:00.600Z,15.00
2018-07-10T23:30:05.051Z,15.00
2018-07-10T23:34:13.162Z,15.10
2018-07-10T23:39:26.323Z,15.10
2018-07-10T23:43:39.483Z,15.30
2018-07-10T23:47:45.789Z,15.20
2018-07-10T23:52:00.885Z,15.10
2018-07-10T23:56:05.399Z,15.00
